createdAt,value
2023-04-13T00:00:35.200Z,99.90
2023-04-13T00:03:04.357Z,99.50
2023-04-13T00:05:34.603Z,99.40
2023-04-13T00:08:03.512Z,99.50
2023-04-13T00:10:36.201Z,99.50
2023-04-13T00:13:07.498Z,99.60
2023-04-13T00:15:38.131Z,99.70
2023-04-13T00:18:06.994Z,99.70
2023-04-13T00:20:35.647Z,99.60
2023-04-13T00:23:04.819Z,99.70
2023-04-13T00:25:33.416Z,99.70
2023-04-13T00:28:03.545Z,99.70
2023-04-13T00:30:33.781Z,99.70
2023-04-13T00:33:05.158Z,99.50
2023-04-13T00:35:34.003Z,99.50
2023-04-13T00:38:04.416Z,99.60
2023-04-13T00:40:33.126Z,99.50
2023-04-13T00:43:02.421Z,99.60
2023-04-13T00:45:37.908Z,99.60
2023-04-13T00:48:06.969Z,99.60
2023-04-13T00:50:35.807Z,99.50
2023-04-13T00:53:06.933Z,99.40
2023-04-13T00:55:42.166Z,99.30
2023-04-13T00:58:11.077Z,99.40
2023-04-13T01:00:43.110Z,99.80
2023-04-13T01:03:13.025Z,99.40
2023-04-13T01:05:51.849Z,99.50
2023-04-13T01:08:28.688Z,99.60
2023-04-13T01:11:05.922Z,99.60
2023-04-13T01:13:42.260Z,99.60
2023-04-13T01:16:19.687Z,99.60
2023-04-13T01:18:54.376Z,99.60
2023-04-13T01:21:27.717Z,99.60
2023-04-13T01:24:16.988Z,99.50
2023-04-13T01:26:58.516Z,99.50
2023-04-13T01:29:29.948Z,99.50
2023-04-13T01:31:58.908Z,99.50
2023-04-13T01:34:27.587Z,99.50
2023-04-13T01:36:56.925Z,99.40
2023-04-13T01:39:26.913Z,99.40
2023-04-13T01:42:03.771Z,99.30
2023-04-13T01:44:36.536Z,99.30
2023-04-13T01:47:16.341Z,99.40
2023-04-13T01:50:10.497Z,99.40
2023-04-13T01:52:51.318Z,99.20
2023-04-13T01:55:21.055Z,99.40
2023-04-13T01:57:56.065Z,99.20
2023-04-13T02:00:35.903Z,99.20
2023-04-13T02:03:09.761Z,99.20
2023-04-13T02:05:40.303Z,99.60
2023-04-13T02:08:10.316Z,99.20
2023-04-13T02:10:46.871Z,99.40
2023-04-13T02:13:15.333Z,99.20
2023-04-13T02:15:45.844Z,99.20
2023-04-13T02:18:14.556Z,99.20
2023-04-13T02:20:46.330Z,99.10
2023-04-13T02:23:15.874Z,99.00
2023-04-13T02:25:48.048Z,99.20
2023-04-13T02:28:18.793Z,99.00
2023-04-13T02:30:49.736Z,99.10
2023-04-13T02:33:19.241Z,98.90
2023-04-13T02:35:48.941Z,98.90
2023-04-13T02:38:18.456Z,98.80
2023-04-13T02:40:56.514Z,98.70
2023-04-13T02:43:26.547Z,98.70
2023-04-13T02:45:57.649Z,98.90
2023-04-13T02:48:30.665Z,98.80
2023-04-13T02:50:59.085Z,98.50
2023-04-13T02:53:32.309Z,98.70
2023-04-13T02:56:06.408Z,98.60
2023-04-13T02:58:35.098Z,98.60
2023-04-13T03:01:09.179Z,98.50
2023-04-13T03:03:38.747Z,98.40
2023-04-13T03:06:08.476Z,98.60
2023-04-13T03:08:43.788Z,98.60
2023-04-13T03:11:23.446Z,98.50
2023-04-13T03:14:01.472Z,98.60
2023-04-13T03:16:32.086Z,98.40
2023-04-13T03:19:01.314Z,98.30
2023-04-13T03:21:29.858Z,98.30
2023-04-13T03:24:07.325Z,98.40
2023-04-13T03:26:35.849Z,98.40
2023-04-13T03:29:08.100Z,98.30
2023-04-13T03:31:43.614Z,98.30
2023-04-13T03:34:12.970Z,98.30
2023-04-13T03:36:43.549Z,98.40
2023-04-13T03:39:12.296Z,98.30
2023-04-13T03:41:41.963Z,98.40
2023-04-13T03:44:11.572Z,98.40
2023-04-13T03:46:42.854Z,98.40
2023-04-13T03:49:22.556Z,98.40
2023-04-13T03:51:50.997Z,98.60
2023-04-13T03:54:19.772Z,98.40
2023-04-13T03:56:48.536Z,98.30
2023-04-13T03:59:16.931Z,98.40
2023-04-13T04:01:47.000Z,98.70
2023-04-13T04:04:15.843Z,98.80
2023-04-13T04:06:44.675Z,98.40
2023-04-13T04:09:15.757Z,98.50
2023-04-13T04:11:48.644Z,98.50
2023-04-13T04:14:24.590Z,98.50
2023-04-13T04:17:04.955Z,98.40
2023-04-13T04:19:34.565Z,98.40
2023-04-13T04:22:04.282Z,98.50
2023-04-13T04:24:36.648Z,98.50
2023-04-13T04:27:05.696Z,98.50
2023-04-13T04:29:35.146Z,98.40
2023-04-13T04:32:15.516Z,98.40
2023-04-13T04:34:45.024Z,98.40
2023-04-13T04:37:21.337Z,98.30
2023-04-13T04:40:07.622Z,98.30
2023-04-13T04:42:37.207Z,98.30
2023-04-13T04:45:10.726Z,98.70
2023-04-13T04:47:45.112Z,98.40
2023-04-13T04:50:20.737Z,98.40
2023-04-13T04:52:55.530Z,98.40
2023-04-13T04:55:25.988Z,98.40
2023-04-13T04:57:54.655Z,98.40
2023-04-13T05:00:26.657Z,98.40
2023-04-13T05:03:09.648Z,98.40
2023-04-13T05:05:41.717Z,98.30
2023-04-13T05:08:15.125Z,98.40
2023-04-13T05:10:50.430Z,98.30
2023-04-13T05:13:21.121Z,98.20
2023-04-13T05:16:01.567Z,98.20
2023-04-13T05:18:33.590Z,98.20
2023-04-13T05:21:02.611Z,98.20
2023-04-13T05:23:31.029Z,98.30
2023-04-13T05:26:08.293Z,98.20
2023-04-13T05:28:36.922Z,98.30
2023-04-13T05:31:07.015Z,98.20
2023-04-13T05:33:39.678Z,98.30
2023-04-13T05:36:09.975Z,98.20
2023-04-13T05:38:40.717Z,98.20
2023-04-13T05:41:10.351Z,98.30
2023-04-13T05:43:40.060Z,98.30
2023-04-13T05:46:08.798Z,98.30
2023-04-13T05:48:42.026Z,98.20
2023-04-13T05:51:12.748Z,98.30
2023-04-13T05:53:41.493Z,98.20
2023-04-13T05:56:10.731Z,98.20
2023-04-13T05:58:40.848Z,98.20
2023-04-13T06:01:20.750Z,98.20
2023-04-13T06:03:50.863Z,98.60
2023-04-13T06:06:20.563Z,98.30
2023-04-13T06:08:49.545Z,98.20
2023-04-13T06:11:18.546Z,98.30
2023-04-13T06:13:46.888Z,98.20
2023-04-13T06:16:15.502Z,98.20
2023-04-13T06:18:44.658Z,98.20
2023-04-13T06:21:14.470Z,98.20
2023-04-13T06:23:42.836Z,98.10
2023-04-13T06:26:19.898Z,98.10
2023-04-13T06:28:54.407Z,98.20
2023-04-13T06:31:27.722Z,98.10
2023-04-13T06:33:58.278Z,98.20
2023-04-13T06:36:32.948Z,98.10
2023-04-13T06:39:04.539Z,98.10
2023-04-13T06:41:35.294Z,98.50
2023-04-13T06:44:16.915Z,98.20
2023-04-13T06:46:57.553Z,98.20
2023-04-13T06:49:28.040Z,98.20
2023-04-13T06:51:59.541Z,98.20
2023-04-13T06:54:28.075Z,98.10
2023-04-13T06:57:02.860Z,98.20
2023-04-13T06:59:31.214Z,98.10
2023-04-13T07:01:59.616Z,98.10
2023-04-13T07:04:30.858Z,98.30
2023-04-13T07:07:03.188Z,98.10
2023-04-13T07:09:32.325Z,98.10
2023-04-13T07:12:05.158Z,98.10
2023-04-13T07:14:35.521Z,98.10
2023-04-13T07:17:05.712Z,98.00
2023-04-13T07:19:36.137Z,98.10
2023-04-13T07:22:06.187Z,98.10
2023-04-13T07:24:36.940Z,98.10
2023-04-13T07:27:09.992Z,98.10
2023-04-13T07:29:38.417Z,98.20
2023-04-13T07:32:11.613Z,98.20
2023-04-13T07:34:40.638Z,98.20
2023-04-13T07:37:11.521Z,98.20
2023-04-13T07:39:39.987Z,98.10
2023-04-13T07:42:08.353Z,98.10
2023-04-13T07:44:41.948Z,98.10
2023-04-13T07:47:13.110Z,98.10
2023-04-13T07:49:43.497Z,98.10
2023-04-13T07:52:17.440Z,98.20
2023-04-13T07:54:46.152Z,98.20
2023-04-13T07:57:17.692Z,98.10
2023-04-13T07:59:51.153Z,98.10
2023-04-13T08:02:22.596Z,98.10
2023-04-13T08:04:53.984Z,98.10
2023-04-13T08:07:29.646Z,98.10
2023-04-13T08:09:58.141Z,98.20
2023-04-13T08:12:26.726Z,98.20
2023-04-13T08:14:55.055Z,98.30
2023-04-13T08:17:23.423Z,98.60
2023-04-13T08:19:52.488Z,98.30
2023-04-13T08:22:21.483Z,98.40
2023-04-13T08:24:51.253Z,98.40
2023-04-13T08:27:19.814Z,98.50
2023-04-13T08:29:48.349Z,98.80
2023-04-13T08:32:17.029Z,98.60
2023-04-13T08:34:45.509Z,98.50
2023-04-13T08:37:17.351Z,98.60
2023-04-13T08:39:48.366Z,98.50
2023-04-13T08:42:23.561Z,98.60
2023-04-13T08:44:53.668Z,98.70
2023-04-13T08:47:22.571Z,98.80
2023-04-13T08:49:54.254Z,98.90
2023-04-13T08:52:31.758Z,98.80
2023-04-13T08:55:02.235Z,98.90
2023-04-13T08:57:35.508Z,98.90
2023-04-13T09:00:12.461Z,98.90
2023-04-13T09:02:56.087Z,98.90
2023-04-13T09:05:34.082Z,98.80
2023-04-13T09:08:08.171Z,98.80
2023-04-13T09:10:40.638Z,98.80
2023-04-13T09:13:11.208Z,98.70
2023-04-13T09:15:41.117Z,98.80
2023-04-13T09:18:21.627Z,98.80
2023-04-13T09:20:58.810Z,98.80
2023-04-13T09:23:27.426Z,98.80
2023-04-13T09:26:06.999Z,98.80
2023-04-13T09:28:48.063Z,98.70
2023-04-13T09:31:17.082Z,98.80
2023-04-13T09:33:46.892Z,98.80
2023-04-13T09:36:17.735Z,98.70
2023-04-13T09:38:46.775Z,98.60
2023-04-13T09:41:15.170Z,98.60
2023-04-13T09:43:44.947Z,98.60
2023-04-13T09:46:14.515Z,98.60
2023-04-13T09:48:43.681Z,98.70
2023-04-13T09:51:12.058Z,98.60
2023-04-13T09:53:46.463Z,98.60
2023-04-13T09:56:15.038Z,98.60
2023-04-13T09:58:46.648Z,98.70
2023-04-13T10:01:16.202Z,98.60
2023-04-13T10:03:45.399Z,98.70
2023-04-13T10:06:14.699Z,98.70
2023-04-13T10:08:43.307Z,98.70
2023-04-13T10:11:14.716Z,98.70
2023-04-13T10:13:51.161Z,98.60
2023-04-13T10:16:42.628Z,98.70
2023-04-13T10:19:14.241Z,98.60
2023-04-13T10:21:45.998Z,98.60
2023-04-13T10:24:15.162Z,98.50
2023-04-13T10:26:45.172Z,98.50
2023-04-13T10:29:16.799Z,98.60
2023-04-13T10:31:47.799Z,98.50
2023-04-13T10:34:26.507Z,98.50
2023-04-13T10:36:57.978Z,98.60
2023-04-13T10:39:27.858Z,98.60
2023-04-13T10:42:08.126Z,98.60
2023-04-13T10:44:45.765Z,98.60
2023-04-13T10:47:15.215Z,98.60
2023-04-13T10:49:46.085Z,98.60
2023-04-13T10:52:15.520Z,98.80
2023-04-13T10:54:45.398Z,98.80
2023-04-13T10:57:16.664Z,98.60
2023-04-13T10:59:57.804Z,98.40
2023-04-13T11:02:33.045Z,98.50
2023-04-13T11:05:02.280Z,98.40
2023-04-13T11:07:31.543Z,98.30
2023-04-13T11:10:03.705Z,98.30
2023-04-13T11:12:32.651Z,98.40
2023-04-13T11:15:02.459Z,98.40
2023-04-13T11:17:30.879Z,98.50
2023-04-13T11:20:01.679Z,98.50
2023-04-13T11:22:37.107Z,98.50
2023-04-13T11:25:10.615Z,98.80
2023-04-13T11:27:40.841Z,98.40
2023-04-13T11:30:13.251Z,98.30
2023-04-13T11:32:43.578Z,98.30
2023-04-13T11:35:15.042Z,98.30
2023-04-13T11:37:45.794Z,98.40
2023-04-13T11:40:17.152Z,98.40
2023-04-13T11:42:47.366Z,98.20
2023-04-13T11:45:20.414Z,98.20
2023-04-13T11:47:51.758Z,98.10
2023-04-13T11:50:21.552Z,98.20
2023-04-13T11:52:56.385Z,98.20
2023-04-13T11:55:26.575Z,98.10
2023-04-13T11:57:56.226Z,98.00
2023-04-13T12:00:28.039Z,98.10
2023-04-13T12:03:02.547Z,98.10
2023-04-13T12:05:34.279Z,98.20
2023-04-13T12:08:04.905Z,98.30
2023-04-13T12:10:42.846Z,98.40
2023-04-13T12:18:28.151Z,98.40
2023-04-13T12:21:02.087Z,98.30
2023-04-13T12:23:30.515Z,98.30
2023-04-13T12:26:00.328Z,98.30
2023-04-13T12:28:34.417Z,98.40
2023-04-13T12:31:09.987Z,98.40
2023-04-13T12:33:39.200Z,98.60
2023-04-13T12:36:11.256Z,98.50
2023-04-13T12:38:39.973Z,98.50
2023-04-13T12:41:11.426Z,98.40
2023-04-13T12:43:39.818Z,98.30
2023-04-13T12:46:09.534Z,98.40
2023-04-13T12:48:38.095Z,98.60
2023-04-13T12:51:07.109Z,98.60
2023-04-13T12:53:36.146Z,98.50
2023-04-13T12:56:05.053Z,98.30
2023-04-13T12:58:35.408Z,98.20
2023-04-13T13:01:04.169Z,98.10
2023-04-13T13:03:34.151Z,97.80
2023-04-13T13:06:02.639Z,97.80
2023-04-13T13:08:32.842Z,97.80
2023-04-13T13:11:03.409Z,97.60
2023-04-13T13:13:31.849Z,97.50
2023-04-13T13:16:00.328Z,97.50
2023-04-13T13:18:42.413Z,97.60
2023-04-13T13:21:16.944Z,97.50
2023-04-13T13:23:45.559Z,97.50
2023-04-13T13:28:46.799Z,97.30
2023-04-13T13:31:15.576Z,97.30
2023-04-13T13:33:44.251Z,97.10
2023-04-13T13:36:14.062Z,97.10
2023-04-13T13:38:44.600Z,97.40
2023-04-13T13:41:12.968Z,97.50
2023-04-13T13:43:41.336Z,97.50
2023-04-13T13:46:09.804Z,97.40
2023-04-13T13:48:40.329Z,97.40
2023-04-13T13:51:28.408Z,97.40
2023-04-13T13:53:59.557Z,97.50
2023-04-13T13:56:28.142Z,97.40
2023-04-13T13:58:59.500Z,97.50
2023-04-13T14:01:28.283Z,97.70
2023-04-13T14:04:00.270Z,97.70
2023-04-13T14:06:28.836Z,97.90
2023-04-13T14:08:57.238Z,97.90
2023-04-13T14:11:28.855Z,97.90
2023-04-13T14:13:57.192Z,98.00
2023-04-13T14:16:25.866Z,98.60
2023-04-13T14:18:54.361Z,98.40
2023-04-13T14:21:23.128Z,98.40
2023-04-13T14:23:51.835Z,98.70
2023-04-13T14:26:20.196Z,98.90
2023-04-13T14:28:51.241Z,99.00
2023-04-13T14:31:19.696Z,99.00
2023-04-13T14:33:48.097Z,98.90
2023-04-13T14:36:17.023Z,98.80
2023-04-13T14:38:45.373Z,98.80
2023-04-13T14:41:13.836Z,98.80
2023-04-13T14:43:42.201Z,99.00
2023-04-13T14:46:12.049Z,98.90
2023-04-13T14:48:40.487Z,99.10
2023-04-13T14:51:08.825Z,99.00
2023-04-13T14:53:37.222Z,99.00
2023-04-13T14:56:06.194Z,99.10
2023-04-13T14:58:34.527Z,99.20
2023-04-13T15:01:04.715Z,99.20
2023-04-13T15:03:34.574Z,99.40
2023-04-13T15:06:05.250Z,99.50
2023-04-13T15:08:34.030Z,99.50
2023-04-13T15:11:02.368Z,99.70
2023-04-13T15:13:30.691Z,99.90
2023-04-13T15:15:59.110Z,99.90
2023-04-13T15:18:27.530Z,99.90
2023-04-13T15:20:57.277Z,99.90
2023-04-13T15:23:25.606Z,99.90
2023-04-13T15:25:53.936Z,99.90
2023-04-13T15:28:22.269Z,99.90
2023-04-13T15:30:51.918Z,99.90
2023-04-13T15:33:20.541Z,99.90
2023-04-13T15:35:49.018Z,99.90
2023-04-13T15:38:18.717Z,99.90
2023-04-13T15:40:47.992Z,99.70
2023-04-13T15:43:16.397Z,99.80
2023-04-13T15:45:46.883Z,99.60
2023-04-13T15:48:15.665Z,99.60
2023-04-13T15:50:44.018Z,99.80
2023-04-13T15:53:12.331Z,99.70
2023-04-13T15:55:42.526Z,99.80
2023-04-13T15:58:12.725Z,99.80
2023-04-13T16:00:41.104Z,99.90
2023-04-13T16:03:09.599Z,99.90
2023-04-13T16:05:38.144Z,99.90
2023-04-13T16:08:06.759Z,99.90
2023-04-13T16:10:35.098Z,99.90
2023-04-13T16:13:06.447Z,99.90
2023-04-13T16:15:36.935Z,99.90
2023-04-13T16:18:05.796Z,99.90
2023-04-13T16:20:35.264Z,99.90
2023-04-13T16:23:05.092Z,99.90
2023-04-13T16:25:34.417Z,99.90
2023-04-13T16:28:04.257Z,99.90
2023-04-13T16:30:32.686Z,99.90
2023-04-13T16:33:02.002Z,99.80
2023-04-13T16:35:31.521Z,99.90
2023-04-13T16:37:59.875Z,99.90
2023-04-13T16:40:28.380Z,99.90
2023-04-13T16:42:56.834Z,99.80
2023-04-13T16:45:26.759Z,99.70
2023-04-13T16:47:55.580Z,99.70
2023-04-13T16:50:28.499Z,99.70
2023-04-13T16:52:58.019Z,99.80
2023-04-13T16:55:28.640Z,99.80
2023-04-13T16:57:57.418Z,99.70
2023-04-13T17:00:27.199Z,99.80
2023-04-13T17:02:55.941Z,99.90
2023-04-13T17:05:28.402Z,99.80
2023-04-13T17:07:56.931Z,99.70
2023-04-13T17:10:25.939Z,99.60
2023-04-13T17:12:54.273Z,99.70
2023-04-13T17:15:23.205Z,99.70
2023-04-13T17:17:53.063Z,99.70
2023-04-13T17:20:22.042Z,99.70
2023-04-13T17:22:54.223Z,99.70
2023-04-13T17:25:22.603Z,99.80
2023-04-13T17:27:52.832Z,99.70
2023-04-13T17:30:22.716Z,99.60
2023-04-13T17:32:52.587Z,99.70
2023-04-13T17:35:21.424Z,99.60
2023-04-13T17:37:49.773Z,99.70
2023-04-13T17:40:18.162Z,99.90
2023-04-13T17:42:46.448Z,99.90
2023-04-13T17:45:14.764Z,99.90
2023-04-13T17:47:43.109Z,99.90
2023-04-13T17:50:13.829Z,99.90
2023-04-13T17:52:42.518Z,99.90
2023-04-13T17:55:11.426Z,99.90
2023-04-13T17:57:39.725Z,99.90
2023-04-13T18:00:09.833Z,99.90
2023-04-13T18:02:39.434Z,99.90
2023-04-13T18:05:15.220Z,99.90
2023-04-13T18:07:45.608Z,99.90
2023-04-13T18:10:14.561Z,99.90
2023-04-13T18:12:43.006Z,99.90
2023-04-13T18:15:11.999Z,99.90
2023-04-13T18:17:41.022Z,99.90
2023-04-13T18:20:11.146Z,99.90
2023-04-13T18:22:39.616Z,99.90
2023-04-13T18:25:10.781Z,99.90
2023-04-13T18:27:39.125Z,99.90
2023-04-13T18:30:09.552Z,99.90
2023-04-13T18:32:37.919Z,99.90
2023-04-13T18:35:06.881Z,99.90
2023-04-13T18:37:35.217Z,99.90
2023-04-13T18:40:05.304Z,99.90
2023-04-13T18:42:35.046Z,99.90
2023-04-13T18:45:03.439Z,99.80
2023-04-13T18:47:31.807Z,99.80
2023-04-13T18:50:00.837Z,99.80
2023-04-13T18:52:29.948Z,99.90
2023-04-13T18:54:58.253Z,99.90
2023-04-13T18:57:26.717Z,99.90
2023-04-13T18:59:59.051Z,99.90
2023-04-13T19:02:27.685Z,99.90
2023-04-13T19:04:56.388Z,99.80
2023-04-13T19:07:24.796Z,99.80
2023-04-13T19:09:53.541Z,99.90
2023-04-13T19:12:21.925Z,99.90
2023-04-13T19:14:50.437Z,99.90
2023-04-13T19:17:21.354Z,99.80
2023-04-13T19:19:49.784Z,99.90
2023-04-13T19:22:19.340Z,99.80
2023-04-13T19:24:48.156Z,99.80
2023-04-13T19:27:16.675Z,99.90
2023-04-13T19:29:45.036Z,99.80
2023-04-13T19:32:16.673Z,99.70
2023-04-13T19:34:47.041Z,99.90
2023-04-13T19:37:16.587Z,99.70
2023-04-13T19:39:44.973Z,99.70
2023-04-13T19:42:13.431Z,99.80
2023-04-13T19:44:41.761Z,99.70
2023-04-13T19:47:10.172Z,99.70
2023-04-13T19:49:41.384Z,99.70
2023-04-13T19:52:16.195Z,99.60
2023-04-13T19:54:44.616Z,99.70
2023-04-13T19:57:13.997Z,99.60
2023-04-13T19:59:44.090Z,99.70
2023-04-13T20:02:12.856Z,99.90
2023-04-13T20:04:41.409Z,99.60
2023-04-13T20:07:11.386Z,99.60
2023-04-13T20:09:39.770Z,99.60
2023-04-13T20:12:09.022Z,99.60
2023-04-13T20:14:39.660Z,99.60
2023-04-13T20:17:08.132Z,99.60
2023-04-13T20:19:36.886Z,99.40
2023-04-13T20:22:05.782Z,99.50
2023-04-13T20:24:35.492Z,99.50
2023-04-13T20:27:03.839Z,99.50
2023-04-13T20:29:32.248Z,99.50
2023-04-13T20:32:00.561Z,99.50
2023-04-13T20:34:28.935Z,99.40
2023-04-13T20:36:58.867Z,99.40
2023-04-13T20:39:29.805Z,99.50
2023-04-13T20:42:04.786Z,99.40
2023-04-13T20:44:37.934Z,99.40
2023-04-13T20:47:06.541Z,99.40
2023-04-13T20:49:34.933Z,99.40
2023-04-13T20:52:03.424Z,99.40
2023-04-13T20:54:31.849Z,99.40
2023-04-13T20:57:01.706Z,99.30
2023-04-13T20:59:31.074Z,99.30
2023-04-13T21:02:00.122Z,99.30
2023-04-13T21:04:28.678Z,99.20
2023-04-13T21:06:57.039Z,99.10
2023-04-13T21:09:25.423Z,99.20
2023-04-13T21:11:53.833Z,99.30
2023-04-13T21:14:24.779Z,99.30
2023-04-13T21:16:53.228Z,99.20
2023-04-13T21:19:21.732Z,99.30
2023-04-13T21:21:50.163Z,99.30
2023-04-13T21:24:18.611Z,99.30
2023-04-13T21:26:47.007Z,99.30
2023-04-13T21:29:16.417Z,99.30
2023-04-13T21:31:46.173Z,99.30
2023-04-13T21:34:22.483Z,99.30
2023-04-13T21:36:52.070Z,99.30
2023-04-13T21:39:20.594Z,99.30
2023-04-13T21:41:49.017Z,99.30
2023-04-13T21:44:29.273Z,99.20
2023-04-13T21:47:00.145Z,99.10
2023-04-13T21:49:28.564Z,99.50
2023-04-13T21:51:57.023Z,99.20
2023-04-13T21:54:25.464Z,99.20
2023-04-13T21:56:53.833Z,99.20
2023-04-13T21:59:26.687Z,99.20
2023-04-13T22:01:55.329Z,99.20
2023-04-13T22:04:25.250Z,99.20
2023-04-13T22:06:53.698Z,99.20
2023-04-13T22:09:22.220Z,99.20
2023-04-13T22:11:51.490Z,99.30
2023-04-13T22:14:20.328Z,99.10
2023-04-13T22:16:48.928Z,99.20
2023-04-13T22:19:17.357Z,99.20
2023-04-13T22:21:47.083Z,99.20
2023-04-13T22:24:16.093Z,99.20
2023-04-13T22:26:44.444Z,99.20
2023-04-13T22:29:13.387Z,99.20
2023-04-13T22:31:41.806Z,99.10
2023-04-13T22:34:10.581Z,99.10
2023-04-13T22:36:38.977Z,99.20
2023-04-13T22:39:08.746Z,99.00
2023-04-13T22:41:37.058Z,99.00
2023-04-13T22:44:05.666Z,99.10
2023-04-13T22:46:34.244Z,99.10
2023-04-13T22:49:04.163Z,99.10
2023-04-13T22:51:40.099Z,99.10
2023-04-13T22:54:10.070Z,99.10
2023-04-13T22:56:38.429Z,98.90
2023-04-13T22:59:06.814Z,98.90
2023-04-13T23:01:35.271Z,99.10
2023-04-13T23:04:03.804Z,99.10
2023-04-13T23:06:32.342Z,99.10
2023-04-13T23:09:00.999Z,99.10
2023-04-13T23:11:30.912Z,99.10
2023-04-13T23:14:00.660Z,99.10
2023-04-13T23:16:29.412Z,99.00
2023-04-13T23:18:58.150Z,99.00
2023-04-13T23:21:27.613Z,98.90
2023-04-13T23:23:56.230Z,99.10
2023-04-13T23:26:24.601Z,99.00
2023-04-13T23:28:54.424Z,99.00
2023-04-13T23:31:22.803Z,98.90
2023-04-13T23:33:51.985Z,99.10
2023-04-13T23:36:21.822Z,99.00
2023-04-13T23:38:50.236Z,99.00
2023-04-13T23:41:18.594Z,98.90
2023-04-13T23:43:47.166Z,98.90
2023-04-13T23:46:17.209Z,99.00
2023-04-13T23:48:45.589Z,99.00
2023-04-13T23:51:13.953Z,99.10
2023-04-13T23:53:42.366Z,99.10
2023-04-13T23:56:10.741Z,99.10
2023-04-13T23:58:39.086Z,99.20
